Time;durP1;ratioP1;P1;durP2;ratioP2;P2;SDS_P1;SDS_P2;PMS_P1;PMS_P2;Temp;Humidity;BMP_temperature;BMP_pressure;BME280_temperature;BME280_humidity;BME280_pressure;Samples;Min_cycle;Max_cycle;Signal;HPM_P1;HPM_P2
2023/08/25 00:01:19;;;;;;;;;;;;;;;-140.72;100.00;52561.31;6276314;22;19912;-69
2023/08/25 00:03:48;;;;;;;;;;;;;;;-140.72;100.00;52549.13;6300148;22;19915;-69
2023/08/25 00:06:14;;;;;;;;;;;;;;;-140.72;100.00;52551.16;6276064;22;20229;-69
2023/08/25 00:08:43;;;;;;;;;;;;;;;-140.72;100.00;52541.03;6276649;22;19919;-69
2023/08/25 00:11:08;;;;;;;;;;;;;;;-140.72;100.00;52577.53;6276544;22;20247;-69
2023/08/25 00:13:35;;;;;;;;;;;;;;;-140.72;100.00;52573.50;6276469;22;19919;-69
2023/08/25 00:18:51;;;;;;;;;;;;;;;-140.72;100.00;52567.41;6278735;22;19918;-69
2023/08/25 00:21:26;;;;;;;;;;;;;;;-140.72;100.00;52545.06;6277903;22;20308;-69
2023/08/25 00:23:52;;;;;;;;;;;;;;;-140.72;100.00;52567.41;6278795;22;19982;-69
2023/08/25 00:26:17;;;;;;;;;;;;;;;-140.72;100.00;52567.41;6278137;22;19919;-69
2023/08/25 00:28:42;;;;;;;;;;;;;;;-140.72;100.00;52593.78;6277496;22;20285;-69
2023/08/25 00:31:07;;;;;;;;;;;;;;;-140.72;100.00;52591.75;6303043;22;20243;-69
2023/08/25 00:33:34;;;;;;;;;;;;;;;-140.72;100.00;52589.72;6277489;22;20438;-69
2023/08/25 00:36:00;;;;;;;;;;;;;;;-140.72;100.00;52547.09;6278056;22;19922;-69
2023/08/25 00:38:28;;;;;;;;;;;;;;;-140.72;100.00;52573.50;6278495;22;19935;-69
2023/08/25 00:40:53;;;;;;;;;;;;;;;-140.72;100.00;52581.59;6278840;22;19911;-68
2023/08/25 00:43:18;;;;;;;;;;;;;;;-140.72;100.00;52559.28;6277846;22;20346;-68
2023/08/25 00:45:44;;;;;;;;;;;;;;;-140.72;100.00;52618.13;6276485;22;20000;-68
2023/08/25 00:48:10;;;;;;;;;;;;;;;-140.72;100.00;52585.66;6278425;22;19923;-69
2023/08/25 00:50:36;;;;;;;;;;;;;;;-140.72;100.00;52567.41;6278437;22;19911;-68
2023/08/25 00:53:02;;;;;;;;;;;;;;;-140.72;100.00;52601.91;6276825;22;20273;-69
2023/08/25 00:55:27;;;;;;;;;;;;;;;-140.72;100.00;52593.78;6278134;22;19915;-68
2023/08/25 00:57:53;;;;;;;;;;;;;;;-140.72;100.00;52587.69;6278154;22;20244;-69
2023/08/25 01:00:18;;;;;;;;;;;;;;;-140.72;100.00;52605.94;6278647;22;19912;-69
2023/08/25 01:02:44;;;;;;;;;;;;;;;-140.72;100.00;52573.50;6277990;22;19915;-69
2023/08/25 01:05:10;;;;;;;;;;;;;;;-140.72;100.00;52567.41;6277869;22;19918;-69
2023/08/25 01:07:35;;;;;;;;;;;;;;;-140.72;100.00;52575.50;6276221;22;19911;-69
2023/08/25 01:10:00;;;;;;;;;;;;;;;-140.72;100.00;52569.44;6277580;22;19912;-69
2023/08/25 01:12:32;;;;;;;;;;;;;;;-140.72;100.00;52581.59;6277661;22;19911;-69
2023/08/25 01:15:18;;;;;;;;;;;;;;;-140.72;100.00;52585.66;6278026;22;20316;-69
2023/08/25 01:17:44;;;;;;;;;;;;;;;-140.72;100.00;52626.25;6277923;22;19918;-69
2023/08/25 01:20:09;;;;;;;;;;;;;;;-140.72;100.00;52601.91;6277951;22;20248;-68
2023/08/25 01:22:55;;;;;;;;;;;;;;;-140.72;100.00;52622.19;6276064;22;20320;-69
2023/08/25 01:25:24;;;;;;;;;;;;;;;-140.72;100.00;52603.94;6230173;22;20283;-69
2023/08/25 01:27:50;;;;;;;;;;;;;;;-140.72;100.00;52626.25;6301323;22;19911;-69
2023/08/25 01:30:15;;;;;;;;;;;;;;;-140.72;100.00;52595.81;6277486;22;20001;-69
2023/08/25 01:32:41;;;;;;;;;;;;;;;-140.72;100.00;52610.00;6275848;22;20292;-70
2023/08/25 01:35:15;;;;;;;;;;;;;;;-140.72;100.00;52593.78;6300464;22;19941;-69
2023/08/25 01:38:02;;;;;;;;;;;;;;;-140.72;100.00;52605.94;6277826;22;19990;-69
2023/08/25 01:40:55;;;;;;;;;;;;;;;-140.72;100.00;52595.81;6277746;22;19991;-69
2023/08/25 01:43:22;;;;;;;;;;;;;;;-140.72;100.00;52593.78;6277459;22;19911;-68
2023/08/25 01:45:48;;;;;;;;;;;;;;;-140.72;100.00;52589.72;6277697;22;19986;-70
2023/08/25 01:48:14;;;;;;;;;;;;;;;-140.72;100.00;52597.84;6277333;22;19994;-70
2023/08/25 01:50:40;;;;;;;;;;;;;;;-140.72;100.00;52614.06;6301486;22;19918;-70
2023/08/25 01:55:58;;;;;;;;;;;;;;;-140.72;100.00;52581.59;6277510;22;19915;-68
2023/08/25 01:58:25;;;;;;;;;;;;;;;-140.72;100.00;52618.13;6277540;22;19945;-69
2023/08/25 02:00:50;;;;;;;;;;;;;;;-140.72;100.00;52599.88;6277461;22;19982;-69
2023/08/25 02:03:17;;;;;;;;;;;;;;;-140.72;100.00;52587.69;6275556;22;19934;-68
2023/08/25 02:05:42;;;;;;;;;;;;;;;-140.72;100.00;52622.19;6277307;22;19911;-69
2023/08/25 02:08:08;;;;;;;;;;;;;;;-140.72;100.00;52654.66;6275663;22;19946;-69
2023/08/25 02:10:33;;;;;;;;;;;;;;;-140.72;100.00;52648.56;6277039;22;19965;-69
2023/08/25 02:12:58;;;;;;;;;;;;;;;-140.72;100.00;52599.88;6277104;22;19911;-69
2023/08/25 02:15:24;;;;;;;;;;;;;;;-140.72;100.00;52634.38;6301087;22;20033;-69
2023/08/25 02:17:49;;;;;;;;;;;;;;;-140.72;100.00;52642.47;6275544;22;19939;-69
2023/08/25 02:20:14;;;;;;;;;;;;;;;-140.72;100.00;52622.19;6275443;22;19911;-69
2023/08/25 02:22:39;;;;;;;;;;;;;;;-140.72;100.00;52630.31;6300846;22;20288;-69
2023/08/25 02:25:05;;;;;;;;;;;;;;;-140.72;100.00;52628.28;6276994;22;19912;-69
2023/08/25 02:27:30;;;;;;;;;;;;;;;-140.72;100.00;52622.19;6277130;22;19946;-69
2023/08/25 02:29:55;;;;;;;;;;;;;;;-140.72;100.00;52632.34;6276624;22;19912;-68
2023/08/25 02:32:21;;;;;;;;;;;;;;;-140.72;100.00;52646.53;6301278;22;19923;-68
2023/08/25 02:35:10;;;;;;;;;;;;;;;-140.72;100.00;52597.84;6275574;22;19922;-68
2023/08/25 02:37:35;;;;;;;;;;;;;;;-140.72;100.00;52597.84;6277220;22;19992;-68
2023/08/25 02:40:05;;;;;;;;;;;;;;;-140.72;100.00;52622.19;6275154;22;20259;-69
2023/08/25 02:42:30;;;;;;;;;;;;;;;-140.72;100.00;52599.88;6277018;22;19994;-69
2023/08/25 02:44:56;;;;;;;;;;;;;;;-140.72;100.00;52605.94;6276490;22;19942;-69
2023/08/25 02:47:21;;;;;;;;;;;;;;;-140.72;100.00;52603.94;6275477;22;19915;-69
2023/08/25 02:49:46;;;;;;;;;;;;;;;-140.72;100.00;52587.69;6276738;22;19915;-69
2023/08/25 02:52:11;;;;;;;;;;;;;;;-140.72;100.00;52634.38;6277079;22;19911;-69
2023/08/25 02:54:36;;;;;;;;;;;;;;;-140.72;100.00;52644.50;6276637;22;19915;-69
2023/08/25 02:57:02;;;;;;;;;;;;;;;-140.72;100.00;52601.91;6277186;22;19919;-69
2023/08/25 02:59:27;;;;;;;;;;;;;;;-140.72;100.00;52605.94;6277100;22;19911;-69
2023/08/25 03:01:52;;;;;;;;;;;;;;;-140.72;100.00;52605.94;6275222;22;19982;-69
2023/08/25 03:04:17;;;;;;;;;;;;;;;-140.72;100.00;52589.72;6276850;22;19911;-69
2023/08/25 03:06:44;;;;;;;;;;;;;;;-140.72;100.00;52603.94;6275170;22;19911;-68
2023/08/25 03:09:09;;;;;;;;;;;;;;;-140.72;100.00;52581.59;6275265;22;20336;-69
2023/08/25 03:11:34;;;;;;;;;;;;;;;-140.72;100.00;52575.50;6275295;22;19911;-69
2023/08/25 03:13:59;;;;;;;;;;;;;;;-140.72;100.00;52599.88;6276633;22;20247;-69
2023/08/25 03:16:25;;;;;;;;;;;;;;;-140.72;100.00;52607.97;6276919;22;19911;-69
2023/08/25 03:18:50;;;;;;;;;;;;;;;-140.72;100.00;52595.81;6276514;22;19911;-69
2023/08/25 03:21:16;;;;;;;;;;;;;;;-140.72;100.00;52591.75;6276920;22;19911;-69
2023/08/25 03:23:41;;;;;;;;;;;;;;;-140.72;100.00;52614.06;6275084;22;20324;-68
2023/08/25 03:26:06;;;;;;;;;;;;;;;-140.72;100.00;52545.06;6275485;22;19923;-68
2023/08/25 03:28:31;;;;;;;;;;;;;;;-140.72;100.00;52620.16;6274979;22;19917;-69
2023/08/25 03:30:56;;;;;;;;;;;;;;;-140.72;100.00;52575.50;6275001;22;19922;-69
2023/08/25 03:33:22;;;;;;;;;;;;;;;-140.72;100.00;52601.91;6300876;22;19922;-69
2023/08/25 03:35:47;;;;;;;;;;;;;;;-140.72;100.00;52593.78;6277311;22;19918;-69
2023/08/25 03:38:12;;;;;;;;;;;;;;;-140.72;100.00;52559.28;6275229;22;19911;-69
2023/08/25 03:40:37;;;;;;;;;;;;;;;-140.72;100.00;52636.38;6300725;22;20328;-69
2023/08/25 03:43:03;;;;;;;;;;;;;;;-140.72;100.00;52591.75;6276044;22;19956;-69
2023/08/25 03:45:28;;;;;;;;;;;;;;;-140.72;100.00;52593.78;6276824;22;20251;-69
2023/08/25 03:47:53;;;;;;;;;;;;;;;-140.72;100.00;52610.00;6276432;22;20248;-69
2023/08/25 03:50:19;;;;;;;;;;;;;;;-140.72;100.00;52547.09;6274707;22;19947;-69
2023/08/25 03:52:44;;;;;;;;;;;;;;;-140.72;100.00;52585.66;6276710;22;19919;-69
2023/08/25 03:55:09;;;;;;;;;;;;;;;-140.72;100.00;52614.06;6300640;22;19916;-69
2023/08/25 03:57:35;;;;;;;;;;;;;;;-140.72;100.00;52599.88;6300674;22;20225;-69
2023/08/25 04:00:00;;;;;;;;;;;;;;;-140.72;100.00;52599.88;6275109;22;20271;-69
2023/08/25 04:02:25;;;;;;;;;;;;;;;-140.72;100.00;52581.59;6300567;22;20308;-69
2023/08/25 04:04:51;;;;;;;;;;;;;;;-140.72;100.00;52595.81;6274716;22;19918;-68
2023/08/25 04:07:16;;;;;;;;;;;;;;;-140.72;100.00;52601.91;6274788;22;19946;-68
2023/08/25 04:09:41;;;;;;;;;;;;;;;-140.72;100.00;52543.03;6276452;22;19983;-69
2023/08/25 04:12:07;;;;;;;;;;;;;;;-140.72;100.00;52622.19;6276319;22;19961;-69
2023/08/25 04:14:32;;;;;;;;;;;;;;;-140.72;100.00;52620.16;6274498;22;20300;-69
2023/08/25 04:16:57;;;;;;;;;;;;;;;-140.72;100.00;52605.94;6274522;22;20340;-68
2023/08/25 04:19:22;;;;;;;;;;;;;;;-140.72;100.00;52591.75;6276577;22;19907;-68
2023/08/25 04:21:48;;;;;;;;;;;;;;;-140.72;100.00;52634.38;6276649;22;19911;-68
2023/08/25 04:24:17;;;;;;;;;;;;;;;-140.72;100.00;52581.59;6275726;22;19915;-69
2023/08/25 04:26:42;;;;;;;;;;;;;;;-140.72;100.00;52561.31;6275446;22;20001;-68
2023/08/25 04:29:09;;;;;;;;;;;;;;;-140.72;100.00;52591.75;6300831;22;20001;-69
2023/08/25 04:31:34;;;;;;;;;;;;;;;-140.72;100.00;52599.88;6274614;22;20334;-69
2023/08/25 04:33:59;;;;;;;;;;;;;;;-140.72;100.00;52593.78;6274333;22;19915;-69
2023/08/25 04:36:25;;;;;;;;;;;;;;;-140.72;100.00;52605.94;6300302;22;20324;-71
2023/08/25 04:38:50;;;;;;;;;;;;;;;-140.72;100.00;52587.69;6275903;22;19911;-69
2023/08/25 04:44:23;;;;;;;;;;;;;;;-140.72;100.00;52605.94;6276086;22;20239;-69
2023/08/25 04:46:49;;;;;;;;;;;;;;;-140.72;100.00;52569.44;6276355;22;19911;-69
2023/08/25 04:49:20;;;;;;;;;;;;;;;-140.72;100.00;52612.03;6276135;22;19998;-74
2023/08/25 04:51:45;;;;;;;;;;;;;;;-140.72;100.00;52601.91;6274515;22;19915;-72
2023/08/25 04:54:10;;;;;;;;;;;;;;;-140.72;100.00;52618.13;6276308;22;20324;-73
2023/08/25 04:56:48;;;;;;;;;;;;;;;-140.72;100.00;52605.94;6276197;22;19922;-72
2023/08/25 04:59:13;;;;;;;;;;;;;;;-140.72;100.00;52567.41;6274676;22;19933;-73
2023/08/25 05:01:39;;;;;;;;;;;;;;;-140.72;100.00;52577.53;6278527;22;19912;-72
2023/08/25 05:04:04;;;;;;;;;;;;;;;-140.72;100.00;52595.81;6278241;22;19952;-72
2023/08/25 05:06:29;;;;;;;;;;;;;;;-140.72;100.00;52585.66;6302418;22;19911;-71
2023/08/25 05:08:56;;;;;;;;;;;;;;;-140.72;100.00;52601.91;6276436;22;20289;-72
2023/08/25 05:11:22;;;;;;;;;;;;;;;-140.72;100.00;52616.09;6278641;22;19987;-73
2023/08/25 05:13:47;;;;;;;;;;;;;;;-140.72;100.00;52612.03;6276633;22;19922;-74
2023/08/25 05:16:15;;;;;;;;;;;;;;;-140.72;100.00;52601.91;6278051;22;19915;-71
2023/08/25 05:18:40;;;;;;;;;;;;;;;-140.72;100.00;52585.66;6277031;22;19911;-69
2023/08/25 05:21:05;;;;;;;;;;;;;;;-140.72;100.00;52616.09;6277408;22;19978;-68
2023/08/25 05:23:30;;;;;;;;;;;;;;;-140.72;100.00;52587.69;6301958;22;20013;-70
2023/08/25 05:25:56;;;;;;;;;;;;;;;-140.72;100.00;52605.94;6276130;22;20351;-69
2023/08/25 05:28:21;;;;;;;;;;;;;;;-140.72;100.00;52605.94;6277739;22;19911;-69
2023/08/25 05:30:46;;;;;;;;;;;;;;;-140.72;100.00;52585.66;6277214;22;19915;-69
2023/08/25 05:33:12;;;;;;;;;;;;;;;-140.72;100.00;52575.50;6276092;22;20324;-69
2023/08/25 05:35:37;;;;;;;;;;;;;;;-140.72;100.00;52589.72;6275804;22;19923;-69
2023/08/25 05:38:03;;;;;;;;;;;;;;;-140.72;100.00;52589.72;6277635;22;20295;-69
2023/08/25 05:40:28;;;;;;;;;;;;;;;-140.72;100.00;52593.78;6277232;22;19912;-69
2023/08/25 05:42:53;;;;;;;;;;;;;;;-140.72;100.00;52563.34;6276044;22;19922;-69
2023/08/25 05:45:18;;;;;;;;;;;;;;;-140.72;100.00;52571.47;6277572;22;19911;-71
2023/08/25 05:47:44;;;;;;;;;;;;;;;-140.72;100.00;52597.84;6277880;22;19934;-76
2023/08/25 05:50:10;;;;;;;;;;;;;;;-140.72;100.00;52589.72;6276576;22;19912;-70
2023/08/25 05:52:36;;;;;;;;;;;;;;;-140.72;100.00;52599.88;6277183;22;19953;-70
2023/08/25 05:55:01;;;;;;;;;;;;;;;-140.72;100.00;52571.47;6275928;22;19911;-69
2023/08/25 05:57:33;;;;;;;;;;;;;;;-140.72;100.00;52573.50;6277251;22;19986;-70
2023/08/25 05:59:59;;;;;;;;;;;;;;;-140.72;100.00;52547.09;6277208;22;19911;-69
2023/08/25 06:02:24;;;;;;;;;;;;;;;-140.72;100.00;52563.34;6275262;22;19918;-69
2023/08/25 06:04:49;;;;;;;;;;;;;;;-140.72;100.00;52573.50;6277210;22;20008;-69
2023/08/25 06:07:14;;;;;;;;;;;;;;;-140.72;100.00;52559.28;6301202;22;20330;-69
2023/08/25 06:09:40;;;;;;;;;;;;;;;-140.72;100.00;52569.44;6275396;22;19919;-69
2023/08/25 06:12:05;;;;;;;;;;;;;;;-140.72;100.00;52587.69;6300937;22;19918;-69
2023/08/25 06:14:30;;;;;;;;;;;;;;;-140.72;100.00;52575.50;6274964;22;19994;-69
2023/08/25 06:17:02;;;;;;;;;;;;;;;-140.72;100.00;52569.44;6276488;22;19915;-69
2023/08/25 06:19:28;;;;;;;;;;;;;;;-140.72;100.00;52557.25;6275349;22;19915;-69
2023/08/25 06:21:54;;;;;;;;;;;;;;;-140.72;100.00;52534.94;6301881;22;19915;-69
2023/08/25 06:24:19;;;;;;;;;;;;;;;-140.72;100.00;52563.34;6277509;22;19912;-69
2023/08/25 06:26:44;;;;;;;;;;;;;;;-140.72;100.00;52561.31;6276811;22;19915;-69
2023/08/25 06:29:11;;;;;;;;;;;;;;;-140.72;100.00;52539.00;6276843;22;19912;-69
2023/08/25 06:31:36;;;;;;;;;;;;;;;-140.72;100.00;52512.59;6276850;22;19911;-69
2023/08/25 06:34:04;;;;;;;;;;;;;;;-140.72;100.00;52565.38;6277153;22;19938;-69
2023/08/25 06:36:32;;;;;;;;;;;;;;;-140.72;100.00;52541.03;6276785;22;20324;-69
2023/08/25 06:38:57;;;;;;;;;;;;;;;-140.72;100.00;52549.13;6275094;22;19994;-69
2023/08/25 06:41:23;;;;;;;;;;;;;;;-140.72;100.00;52532.91;6276476;22;19946;-69
2023/08/25 06:43:57;;;;;;;;;;;;;;;-140.72;100.00;52520.72;6276975;22;19928;-69
2023/08/25 06:46:22;;;;;;;;;;;;;;;-140.72;100.00;52518.69;6277458;22;19911;-70
2023/08/25 06:49:00;;;;;;;;;;;;;;;-140.72;100.00;52520.72;6277069;22;19918;-70
2023/08/25 06:51:35;;;;;;;;;;;;;;;-140.72;100.00;52490.28;6275131;22;19977;-70
2023/08/25 06:54:01;;;;;;;;;;;;;;;-140.72;100.00;52502.47;6275177;22;19918;-70
2023/08/25 06:56:26;;;;;;;;;;;;;;;-140.72;100.00;52508.56;6274843;22;19919;-70
2023/08/25 06:58:52;;;;;;;;;;;;;;;-140.72;100.00;52472.03;6276695;22;19938;-70
2023/08/25 07:01:19;;;;;;;;;;;;;;;-140.72;100.00;52524.78;6274854;22;20328;-69
2023/08/25 07:03:45;;;;;;;;;;;;;;;-140.72;100.00;52508.56;6274832;22;19911;-70
2023/08/25 07:06:17;;;;;;;;;;;;;;;-140.72;100.00;52510.59;6276324;22;20038;-74
2023/08/25 07:08:51;;;;;;;;;;;;;;;-140.72;100.00;52526.81;6276868;22;19915;-74
2023/08/25 07:11:16;;;;;;;;;;;;;;;-140.72;100.00;52480.16;6277406;22;19935;-74
2023/08/25 07:14:05;;;;;;;;;;;;;;;-140.72;100.00;52532.91;6276744;22;20009;-74
2023/08/25 07:16:30;;;;;;;;;;;;;;;-140.72;100.00;52512.59;6275201;22;19953;-75
2023/08/25 07:18:56;;;;;;;;;;;;;;;-140.72;100.00;52476.09;6276125;22;19915;-74
2023/08/25 07:21:33;;;;;;;;;;;;;;;-140.72;100.00;52484.19;6277426;22;19965;-75
2023/08/25 07:24:10;;;;;;;;;;;;;;;-140.72;100.00;52490.28;6275641;22;19935;-75
2023/08/25 07:26:35;;;;;;;;;;;;;;;-140.72;100.00;52492.31;6277174;22;19978;-74
2023/08/25 07:29:00;;;;;;;;;;;;;;;-140.72;100.00;52514.63;6277364;22;19915;-74
2023/08/25 07:31:26;;;;;;;;;;;;;;;-140.72;100.00;52496.38;6275991;22;20004;-74
2023/08/25 07:33:51;;;;;;;;;;;;;;;-140.72;100.00;52463.91;6301672;22;20045;-74
2023/08/25 07:36:17;;;;;;;;;;;;;;;-140.72;100.00;52484.19;6276743;22;19918;-78
2023/08/25 07:39:00;;;;;;;;;;;;;;;-140.72;100.00;52518.69;6276902;22;19911;-74
2023/08/25 07:41:25;;;;;;;;;;;;;;;-140.72;100.00;52500.44;6276762;22;19950;-76
2023/08/25 07:43:50;;;;;;;;;;;;;;;-140.72;100.00;52480.16;6303659;22;19918;-77
2023/08/25 07:46:16;;;;;;;;;;;;;;;-140.72;100.00;52465.94;6277277;22;19934;-77
2023/08/25 07:48:41;;;;;;;;;;;;;;;-140.72;100.00;52490.28;6280848;22;19911;-76
2023/08/25 07:51:08;;;;;;;;;;;;;;;-140.72;100.00;52512.59;6277970;22;19965;-76
2023/08/25 07:53:33;;;;;;;;;;;;;;;-140.72;100.00;52472.03;6277123;22;19915;-76
2023/08/25 07:55:58;;;;;;;;;;;;;;;-140.72;100.00;52486.22;6277587;22;20010;-76
2023/08/25 07:58:24;;;;;;;;;;;;;;;-140.72;100.00;52451.72;6277658;22;19911;-76
2023/08/25 08:00:49;;;;;;;;;;;;;;;-140.72;100.00;52449.72;6303866;22;19911;-76
2023/08/25 08:03:16;;;;;;;;;;;;;;;-140.72;100.00;52441.59;6277230;22;19937;-76
2023/08/25 08:05:42;;;;;;;;;;;;;;;-140.72;100.00;52431.44;6278198;22;19918;-76
2023/08/25 08:08:09;;;;;;;;;;;;;;;-140.72;100.00;52484.19;6279108;22;19997;-75
2023/08/25 08:10:37;;;;;;;;;;;;;;;-140.72;100.00;52470.00;6304990;22;19911;-76
2023/08/25 08:13:03;;;;;;;;;;;;;;;-140.72;100.00;52496.38;6278466;22;19911;-77
2023/08/25 08:15:28;;;;;;;;;;;;;;;-140.72;100.00;52488.25;6276782;22;20320;-76
2023/08/25 08:17:53;;;;;;;;;;;;;;;-140.72;100.00;52508.56;6279185;22;19918;-75
2023/08/25 08:20:19;;;;;;;;;;;;;;;-140.72;100.00;52532.91;6277867;22;19912;-76
2023/08/25 08:22:45;;;;;;;;;;;;;;;-140.72;100.00;52490.28;6278999;22;19973;-77
2023/08/25 08:25:11;;;;;;;;;;;;;;;-140.72;100.00;52526.81;6284248;22;19927;-78
2023/08/25 08:27:37;;;;;;;;;;;;;;;-140.72;100.00;52526.81;6283305;22;20279;-77
2023/08/25 08:30:02;;;;;;;;;;;;;;;-140.72;100.00;52532.91;6287314;22;19919;-78
2023/08/25 08:32:28;;;;;;;;;;;;;;;-140.72;100.00;52494.34;6282322;22;19961;-79
2023/08/25 08:34:53;;;;;;;;;;;;;;;-140.72;100.00;52472.03;6277075;22;20320;-74
2023/08/25 08:37:18;;;;;;;;;;;;;;;-140.72;100.00;52467.97;6277142;22;19965;-75
2023/08/25 08:39:44;;;;;;;;;;;;;;;-140.72;100.00;52453.75;6279286;22;19918;-75
2023/08/25 08:42:15;;;;;;;;;;;;;;;-140.72;100.00;52528.84;6277714;22;19912;-74
2023/08/25 08:44:44;;;;;;;;;;;;;;;-140.72;100.00;52488.25;6276853;22;19994;-78
2023/08/25 08:47:10;;;;;;;;;;;;;;;-140.72;100.00;52455.78;6276957;22;19917;-77
2023/08/25 08:49:36;;;;;;;;;;;;;;;-140.72;100.00;52472.03;6279313;22;19911;-76
2023/08/25 08:52:03;;;;;;;;;;;;;;;-140.72;100.00;52455.78;6276888;22;20287;-76
2023/08/25 08:54:30;;;;;;;;;;;;;;;-140.72;100.00;52427.38;6276853;22;20213;-74
2023/08/25 08:57:05;;;;;;;;;;;;;;;-140.72;100.00;52476.09;6277666;22;19923;-76
2023/08/25 08:59:35;;;;;;;;;;;;;;;-140.72;100.00;52486.22;6276796;22;19937;-76
2023/08/25 09:02:00;;;;;;;;;;;;;;;-140.72;100.00;52492.31;6277716;22;19919;-76
2023/08/25 09:04:26;;;;;;;;;;;;;;;-140.72;100.00;52455.78;6276960;22;19911;-75
2023/08/25 09:06:52;;;;;;;;;;;;;;;-140.72;100.00;52457.81;6278585;22;20328;-77
2023/08/25 09:09:21;;;;;;;;;;;;;;;-140.72;100.00;52419.28;6276702;22;19911;-76
2023/08/25 09:11:46;;;;;;;;;;;;;;;-140.72;100.00;52380.72;6277738;22;19941;-77
2023/08/25 09:14:13;;;;;;;;;;;;;;;-140.72;100.00;52368.53;6277806;22;19911;-76
2023/08/25 09:16:38;;;;;;;;;;;;;;;-140.72;100.00;52368.53;6276546;22;19915;-76
2023/08/25 09:19:04;;;;;;;;;;;;;;;-140.72;100.00;52358.41;6277041;22;20273;-75
2023/08/25 09:21:29;;;;;;;;;;;;;;;-140.72;100.00;52390.84;6277118;22;19911;-76
2023/08/25 09:24:02;;;;;;;;;;;;;;;-140.72;100.00;52372.59;6303190;22;19912;-76
2023/08/25 09:26:29;;;;;;;;;;;;;;;-140.72;100.00;52340.13;6276117;22;19911;-76
2023/08/25 09:28:57;;;;;;;;;;;;;;;-140.72;100.00;52370.56;6277035;22;20325;-77
2023/08/25 09:31:27;;;;;;;;;;;;;;;-140.72;100.00;52342.16;6276611;22;19919;-77
2023/08/25 09:33:58;;;;;;;;;;;;;;;-140.72;100.00;52372.59;6276077;22;19915;-76
2023/08/25 09:36:23;;;;;;;;;;;;;;;-140.72;100.00;52376.66;6276245;22;19917;-76
2023/08/25 09:38:49;;;;;;;;;;;;;;;-140.72;100.00;52362.44;6276823;22;19942;-76
2023/08/25 09:41:22;;;;;;;;;;;;;;;-140.72;100.00;52358.41;6277673;22;19958;-75
2023/08/25 09:44:01;;;;;;;;;;;;;;;-140.72;100.00;52313.75;6279060;22;19938;-71
2023/08/25 09:46:30;;;;;;;;;;;;;;;-140.72;100.00;52403.03;6276062;22;19918;-71
2023/08/25 09:49:11;;;;;;;;;;;;;;;-140.72;100.00;52311.72;6275843;22;19941;-72
2023/08/25 09:51:39;;;;;;;;;;;;;;;-140.72;100.00;52368.53;6276976;22;19959;-73
2023/08/25 09:54:15;;;;;;;;;;;;;;;-140.72;100.00;52374.63;6277320;22;20297;-73
2023/08/25 09:56:41;;;;;;;;;;;;;;;-140.72;100.00;52378.69;6278009;22;19911;-74
2023/08/25 09:59:07;;;;;;;;;;;;;;;-140.72;100.00;52354.34;6275152;22;19922;-73
2023/08/25 10:01:33;;;;;;;;;;;;;;;-140.72;100.00;52382.75;6275919;22;20283;-73
2023/08/25 10:03:59;;;;;;;;;;;;;;;-140.72;100.00;52378.69;6275622;22;20262;-72
2023/08/25 10:06:24;;;;;;;;;;;;;;;-140.72;100.00;52378.69;6276759;22;19999;-72
2023/08/25 10:08:50;;;;;;;;;;;;;;;-140.72;100.00;52366.50;6275167;22;19912;-73
2023/08/25 10:11:19;;;;;;;;;;;;;;;-140.72;100.00;52419.28;6277370;22;19915;-73
2023/08/25 10:13:48;;;;;;;;;;;;;;;-140.72;100.00;52330.00;6277975;22;19911;-72
2023/08/25 10:16:14;;;;;;;;;;;;;;;-140.72;100.00;52342.16;6303512;22;19915;-73
2023/08/25 10:18:43;;;;;;;;;;;;;;;-140.72;100.00;52281.28;6277719;22;19911;-73
2023/08/25 10:24:12;;;;;;;;;;;;;;;-140.72;100.00;52285.34;6277269;22;20282;-73
2023/08/25 10:26:37;;;;;;;;;;;;;;;-140.72;100.00;52271.16;6277480;22;19915;-72
2023/08/25 10:29:03;;;;;;;;;;;;;;;-140.72;100.00;52325.94;6277985;22;19912;-72
2023/08/25 10:31:30;;;;;;;;;;;;;;;-140.72;100.00;52368.53;6277407;22;19938;-72
2023/08/25 10:33:56;;;;;;;;;;;;;;;-140.72;100.00;52307.66;6276994;22;19977;-73
2023/08/25 10:36:22;;;;;;;;;;;;;;;-140.72;100.00;52301.59;6277078;22;19911;-73
2023/08/25 10:38:55;;;;;;;;;;;;;;;-140.72;100.00;52289.41;6274919;22;19945;-74
2023/08/25 10:41:20;;;;;;;;;;;;;;;-140.72;100.00;52338.09;6275004;22;19918;-73
2023/08/25 10:43:47;;;;;;;;;;;;;;;-140.72;100.00;52285.34;6276985;22;20320;-71
2023/08/25 10:46:12;;;;;;;;;;;;;;;-140.72;100.00;52285.34;6277202;22;19911;-73
2023/08/25 10:48:38;;;;;;;;;;;;;;;-140.72;100.00;52238.69;6276965;22;19912;-72
2023/08/25 10:51:08;;;;;;;;;;;;;;;-140.72;100.00;52163.59;6275216;22;19911;-72
2023/08/25 10:53:37;;;;;;;;;;;;;;;-140.72;80.21;52169.69;6274658;22;20312;-72
2023/08/25 10:56:21;;;;;;;;;;;;;;;-140.72;35.22;52258.97;6274289;22;19915;-73
2023/08/25 10:59:13;;;;;;;;;;;;;;;-140.72;97.32;52279.25;6275979;22;19994;-73
2023/08/25 11:01:38;;;;;;;;;;;;;;;-140.72;100.00;52303.59;6270604;22;19958;-73
2023/08/25 11:04:04;;;;;;;;;;;;;;;-140.72;100.00;52332.03;6275898;22;20243;-73
2023/08/25 11:06:36;;;;;;;;;;;;;;;-140.72;100.00;52307.66;6275209;22;20121;-73
2023/08/25 11:09:01;;;;;;;;;;;;;;;-140.72;100.00;52356.38;6273481;22;19911;-73
2023/08/25 11:11:27;;;;;;;;;;;;;;;-140.72;100.00;52336.06;6276787;22;19925;-73
2023/08/25 11:13:56;;;;;;;;;;;;;;;-140.72;100.00;52332.03;6277456;22;20352;-73
2023/08/25 11:16:21;;;;;;;;;;;;;;;-140.72;100.00;52356.38;6301759;22;19919;-73
2023/08/25 11:18:52;;;;;;;;;;;;;;;-140.72;100.00;52336.06;6276237;22;20316;-72
2023/08/25 11:21:21;;;;;;;;;;;;;;;-140.72;100.00;52344.19;6275744;22;19911;-73
2023/08/25 11:23:48;;;;;;;;;;;;;;;-140.72;100.00;52301.59;6301459;22;20418;-72
2023/08/25 11:26:16;;;;;;;;;;;;;;;-140.72;40.98;52289.41;6276369;22;19916;-73
2023/08/25 11:28:42;;;;;;;;;;;;;;;-140.72;29.16;52315.78;6276630;22;19993;-72
2023/08/25 11:31:07;;;;;;;;;;;;;;;-140.72;20.98;52293.47;6276617;22;19911;-72
2023/08/25 11:33:33;;;;;;;;;;;;;;;-140.72;58.71;52336.06;6275147;22;19973;-73
2023/08/25 11:36:05;;;;;;;;;;;;;;;-140.72;59.21;52332.03;6300448;22;19946;-72
2023/08/25 11:38:31;;;;;;;;;;;;;;;-140.72;55.58;52305.63;6274472;22;19911;-72
2023/08/25 11:40:57;;;;;;;;;;;;;;;-140.72;54.48;52325.94;6275848;22;20032;-76
2023/08/25 11:43:29;;;;;;;;;;;;;;;-140.72;50.66;52307.66;6276444;22;19927;-77
2023/08/25 11:45:54;;;;;;;;;;;;;;;-140.72;49.50;52281.28;6277364;22;20255;-84
2023/08/25 11:48:20;;;;;;;;;;;;;;;-140.72;0.00;52252.88;6280024;22;19911;-81
2023/08/25 11:50:46;;;;;;;;;;;;;;;-140.72;0.00;52291.44;6281486;22;19918;-79
2023/08/25 11:53:11;;;;;;;;;;;;;;;-140.72;0.00;52261.00;6276519;22;19916;-76
2023/08/25 11:55:38;;;;;;;;;;;;;;;-140.72;0.00;52252.88;6274774;22;19946;-75
2023/08/25 11:58:07;;;;;;;;;;;;;;;-140.72;0.00;52277.22;6275231;22;19949;-77
2023/08/25 12:00:37;;;;;;;;;;;;;;;-140.72;0.00;52313.75;6274845;22;19918;-77
2023/08/25 12:03:02;;;;;;;;;;;;;;;-140.72;0.00;52277.22;6275252;22;19934;-77
2023/08/25 12:05:30;;;;;;;;;;;;;;;-140.72;1.66;52325.94;6274986;22;19911;-77
2023/08/25 12:08:02;;;;;;;;;;;;;;;-140.72;31.39;52330.00;6275031;22;19911;-77
2023/08/25 12:10:27;;;;;;;;;;;;;;;-140.72;87.89;52398.97;6276370;22;19919;-76
2023/08/25 12:12:53;;;;;;;;;;;;;;;-140.72;100.00;52394.91;6278009;22;20289;-76
2023/08/25 12:15:18;;;;;;;;;;;;;;;-140.72;100.00;52330.00;6277386;22;19912;-77
2023/08/25 12:17:47;;;;;;;;;;;;;;;-140.72;100.00;52346.22;6277475;22;19911;-77
2023/08/25 12:20:16;;;;;;;;;;;;;;;-140.72;100.00;52360.44;6277182;22;19911;-76
2023/08/25 12:22:54;;;;;;;;;;;;;;;-140.72;100.00;52208.25;6276667;22;19912;-77
2023/08/25 12:25:34;;;;;;;;;;;;;;;-140.72;34.95;52092.59;6277166;22;19937;-76
2023/08/25 12:28:00;;;;;;;;;;;;;;;-140.72;0.00;52137.22;6277137;22;19926;-77
2023/08/25 12:30:25;;;;;;;;;;;;;;;-140.72;0.00;52161.56;6276746;22;20300;-76